Time;durP1;ratioP1;P1;durP2;ratioP2;P2;SDS_P1;SDS_P2;PMS_P1;PMS_P2;Temp;Humidity;BMP_temperature;BMP_pressure;BME280_temperature;BME280_humidity;BME280_pressure;Samples;Min_cycle;Max_cycle;Signal;HPM_P1;HPM_P2
2023/08/26 00:00:36;;;;;;;2.87;2.07;;;;;;;22.19;83.09;98242.59;5075244;28;43829;-78
2023/08/26 00:03:04;;;;;;;2.70;2.50;;;;;;;22.20;82.83;98257.75;5057597;28;41048;-78
2023/08/26 00:05:32;;;;;;;2.50;2.30;;;;;;;22.22;82.73;98258.41;5089206;28;39940;-78
2023/08/26 00:07:59;;;;;;;3.43;2.40;;;;;;;22.23;82.51;98249.31;5092960;28;41713;-78
2023/08/26 00:10:28;;;;;;;2.57;2.20;;;;;;;22.23;82.76;98252.00;5074941;28;43662;-78
2023/08/26 00:12:56;;;;;;;2.37;2.10;;;;;;;22.12;83.24;98230.88;5074902;28;41698;-78
2023/08/26 00:15:23;;;;;;;2.17;1.97;;;;;;;22.20;83.50;98242.41;5093399;28;40431;-78
2023/08/26 00:17:51;;;;;;;3.93;2.67;;;;;;;22.18;84.28;98230.13;5056579;28;42240;-78
2023/08/26 00:20:21;;;;;;;2.40;2.20;;;;;;;22.20;84.49;98206.50;5056948;28;43105;-79
2023/08/26 00:22:48;;;;;;;2.77;2.40;;;;;;;22.19;85.66;98223.72;5092110;28;42657;-79
2023/08/26 00:25:16;;;;;;;3.90;2.63;;;;;;;22.15;85.03;98242.13;5056108;28;39799;-79
2023/08/26 00:27:45;;;;;;;3.03;2.73;;;;;;;22.14;85.87;98245.00;5074123;28;40628;-78
2023/08/26 00:30:13;;;;;;;2.77;2.57;;;;;;;22.11;85.45;98240.00;5073557;28;43747;-78
2023/08/26 00:32:40;;;;;;;2.80;2.40;;;;;;;22.00;85.17;98232.34;5074069;28;43053;-78
2023/08/26 00:35:10;;;;;;;3.03;2.80;;;;;;;22.05;85.92;98236.16;5056572;28;40086;-78
2023/08/26 00:37:39;;;;;;;3.17;2.63;;;;;;;21.99;86.06;98236.91;5091886;28;41492;-78
2023/08/26 00:40:09;;;;;;;3.73;2.67;;;;;;;22.08;86.09;98256.53;5073410;28;43815;-79
2023/08/26 00:42:37;;;;;;;4.70;2.50;;;;;;;22.02;86.09;98235.69;5073628;28;43275;-78
2023/08/26 00:45:09;;;;;;;3.00;2.63;;;;;;;22.05;86.39;98240.72;5056691;28;38587;-78
2023/08/26 00:47:38;;;;;;;3.87;2.83;;;;;;;22.00;86.97;98240.44;5056318;28;41771;-77
2023/08/26 00:50:07;;;;;;;3.97;3.37;;;;;;;21.95;88.29;98248.19;5073250;28;42939;-77
2023/08/26 00:52:36;;;;;;;4.00;2.80;;;;;;;21.95;88.14;98256.28;5073241;28;42414;-76
2023/08/26 00:55:06;;;;;;;3.23;2.80;;;;;;;21.85;88.85;98246.59;5056953;28;39244;-77
2023/08/26 00:57:34;;;;;;;3.47;3.00;;;;;;;21.90;88.96;98254.13;5074340;28;41992;-77
2023/08/26 01:00:02;;;;;;;3.13;2.83;;;;;;;21.84;89.02;98253.00;5073834;28;42968;-77
2023/08/26 01:02:32;;;;;;;3.60;2.93;;;;;;;21.59;89.20;98229.97;5074220;28;43329;-77
2023/08/26 01:04:59;;;;;;;3.40;3.07;;;;;;;21.81;89.81;98244.44;5057304;28;38919;-77
2023/08/26 01:07:29;;;;;;;2.40;2.20;;;;;;;21.82;89.90;98246.97;5074174;28;40586;-78
2023/08/26 01:09:57;;;;;;;3.30;3.00;;;;;;;21.80;89.13;98238.22;5056564;28;41778;-77
2023/08/26 01:12:32;;;;;;;2.80;2.60;;;;;;;21.80;88.74;98231.97;5073076;28;42323;-77
2023/08/26 01:15:05;;;;;;;3.50;3.00;;;;;;;21.85;88.34;98238.50;5057180;28;40355;-77
2023/08/26 01:17:35;;;;;;;3.60;3.03;;;;;;;21.86;88.55;98226.72;5057423;28;40530;-77
2023/08/26 01:20:06;;;;;;;3.33;2.33;;;;;;;21.84;89.16;98212.56;5073740;28;42757;-78
2023/08/26 01:22:35;;;;;;;3.57;2.30;;;;;;;21.84;89.38;98222.53;5055963;28;42113;-77
2023/08/26 01:25:05;;;;;;;4.17;2.70;;;;;;;21.73;89.11;98204.94;5055409;28;40354;-80
2023/08/26 01:27:33;;;;;;;3.17;2.43;;;;;;;21.84;88.62;98234.16;5055906;28;40744;-79
2023/08/26 01:30:01;;;;;;;3.50;2.40;;;;;;;21.86;89.22;98252.84;5072776;28;42713;-78
2023/08/26 01:32:34;;;;;;;2.50;2.30;;;;;;;21.77;88.91;98233.19;5072973;28;42317;-78
2023/08/26 01:35:06;;;;;;;3.90;2.87;;;;;;;21.78;88.57;98245.63;5073178;28;40960;-78
2023/08/26 01:37:38;;;;;;;2.13;2.00;;;;;;;21.86;88.38;98269.84;5076309;28;41547;-77
2023/08/26 01:40:10;;;;;;;2.90;2.70;;;;;;;21.86;89.63;98264.47;5075788;28;42533;-77
2023/08/26 01:42:42;;;;;;;4.90;2.77;;;;;;;21.80;89.79;98251.69;5059318;28;41426;-76
2023/08/26 01:45:11;;;;;;;3.03;2.40;;;;;;;21.79;91.43;98227.59;5076148;28;40360;-76
2023/08/26 01:47:39;;;;;;;3.77;2.77;;;;;;;21.70;92.43;98237.63;5059010;28;41080;-78
2023/08/26 01:50:07;;;;;;;3.70;3.13;;;;;;;21.66;93.80;98263.25;5059074;28;41795;-77
2023/08/26 01:52:35;;;;;;;3.17;2.87;;;;;;;21.58;97.31;98259.78;5092729;28;42161;-78
2023/08/26 01:55:02;;;;;;;4.90;3.47;;;;;;;21.50;97.19;98253.47;5060338;28;40204;-79
2023/08/26 01:57:32;;;;;;;4.00;3.57;;;;;;;21.46;98.76;98271.00;5060943;28;41658;-82
2023/08/26 01:59:59;;;;;;;2.90;2.60;;;;;;;21.26;99.19;98228.56;5077674;28;42674;-83
2023/08/26 02:02:27;;;;;;;3.20;2.90;;;;;;;21.50;99.33;98258.00;5060885;28;43167;-84
2023/08/26 02:04:55;;;;;;;3.10;2.80;;;;;;;21.40;99.47;98257.38;5077732;28;39805;-84
2023/08/26 02:07:23;;;;;;;4.07;2.80;;;;;;;21.50;100.00;98266.09;5061143;28;40661;-84
2023/08/26 02:09:51;;;;;;;3.77;2.73;;;;;;;21.51;99.90;98248.91;5060784;28;41696;-82
2023/08/26 02:12:19;;;;;;;3.00;2.70;;;;;;;21.50;99.51;98268.78;5060669;28;41176;-82
2023/08/26 02:14:48;;;;;;;3.53;3.23;;;;;;;21.45;100.00;98266.63;5077594;28;40040;-83
2023/08/26 02:17:16;;;;;;;3.07;2.53;;;;;;;21.47;100.00;98253.81;5060773;28;42135;-81
2023/08/26 02:19:45;;;;;;;3.00;2.70;;;;;;;21.50;99.96;98258.00;5077196;28;43725;-83
2023/08/26 02:22:12;;;;;;;3.63;2.53;;;;;;;21.49;99.33;98256.34;5060075;28;41143;-84
2023/08/26 02:24:41;;;;;;;3.70;2.70;;;;;;;21.58;98.53;98273.28;5075630;28;40087;-83
2023/08/26 02:27:09;;;;;;;2.70;2.50;;;;;;;21.61;97.81;98260.28;5092770;28;43309;-84
2023/08/26 02:29:37;;;;;;;3.53;2.40;;;;;;;21.45;98.83;98217.28;5076028;28;42541;-83
2023/08/26 02:32:07;;;;;;;3.63;2.70;;;;;;;21.50;100.00;98220.28;5059234;28;41449;-82
2023/08/26 02:34:37;;;;;;;2.27;2.07;;;;;;;21.48;100.00;98247.41;5059020;28;39873;-84
2023/08/26 02:37:04;;;;;;;3.23;2.77;;;;;;;21.48;100.00;98274.34;5059324;28;40801;-86
2023/08/26 02:39:32;;;;;;;2.47;2.10;;;;;;;21.47;99.72;98279.91;5059059;28;42992;-84
2023/08/26 02:42:00;;;;;;;4.47;2.67;;;;;;;21.60;100.00;98285.53;5075992;28;42906;-85
2023/08/26 02:44:28;;;;;;;2.57;2.10;;;;;;;21.56;99.15;98270.75;5075979;28;40851;-85
2023/08/26 02:46:56;;;;;;;3.40;2.20;;;;;;;21.67;99.39;98274.88;5075315;28;42716;-85
2023/08/26 02:49:27;;;;;;;3.17;2.33;;;;;;;21.62;99.16;98255.72;5059109;28;41737;-86
2023/08/26 02:51:54;;;;;;;4.27;1.93;;;;;;;21.60;98.21;98247.81;5075669;28;41107;-85
2023/08/26 02:54:22;;;;;;;3.03;2.60;;;;;;;21.73;98.44;98269.63;5059787;28;40718;-86
2023/08/26 02:56:49;;;;;;;3.20;2.47;;;;;;;21.63;98.76;98244.78;5060178;28;40621;-84
2023/08/26 02:59:17;;;;;;;2.90;2.47;;;;;;;21.52;99.01;98231.69;5093781;28;43031;-84
2023/08/26 03:01:44;;;;;;;2.60;2.30;;;;;;;21.58;98.71;98252.56;5060036;28;42194;-85
2023/08/26 03:04:13;;;;;;;2.43;2.23;;;;;;;21.63;98.30;98274.41;5076335;28;39380;-85
2023/08/26 03:06:42;;;;;;;3.07;2.27;;;;;;;21.60;99.18;98277.47;5077084;28;42717;-85
2023/08/26 03:09:11;;;;;;;3.00;2.13;;;;;;;21.67;99.29;98291.88;5059987;28;43081;-82
2023/08/26 03:11:42;;;;;;;3.67;2.37;;;;;;;21.64;99.84;98286.84;5076937;28;42221;-86
2023/08/26 03:14:10;;;;;;;2.90;2.63;;;;;;;21.54;100.00;98280.88;5059964;28;38919;-85
2023/08/26 03:16:37;;;;;;;3.17;2.10;;;;;;;21.56;100.00;98284.22;5075914;28;40624;-85
2023/08/26 03:19:05;;;;;;;3.30;2.50;;;;;;;21.62;100.00;98296.16;5057531;28;41757;-83
2023/08/26 03:21:33;;;;;;;3.00;2.77;;;;;;;21.55;100.00;98290.63;5058409;28;41244;-83
2023/08/26 03:24:02;;;;;;;3.10;2.80;;;;;;;21.58;100.00;98306.44;5058452;28;40694;-85
2023/08/26 03:26:29;;;;;;;3.33;2.43;;;;;;;21.43;100.00;98283.97;5058392;28;40779;-85
2023/08/26 03:28:57;;;;;;;3.27;2.63;;;;;;;21.63;100.00;98317.53;5058402;28;41728;-85
2023/08/26 03:31:25;;;;;;;2.43;2.10;;;;;;;21.59;100.00;98304.59;5075714;28;43225;-84
2023/08/26 03:33:52;;;;;;;4.20;2.50;;;;;;;21.53;100.00;98298.03;5058473;28;40312;-85
2023/08/26 03:36:20;;;;;;;3.10;2.80;;;;;;;21.67;99.79;98323.38;5075250;28;40720;-84
2023/08/26 03:38:47;;;;;;;4.77;2.93;;;;;;;21.61;100.00;98307.94;5075459;28;42691;-85
2023/08/26 03:41:16;;;;;;;3.43;2.90;;;;;;;21.62;100.00;98310.47;5058059;28;41269;-87
2023/08/26 03:43:44;;;;;;;2.33;2.13;;;;;;;21.68;100.00;98319.69;5058303;28;39845;-86
2023/08/26 03:46:12;;;;;;;3.07;2.40;;;;;;;21.60;99.94;98307.09;5058613;28;42654;-85
2023/08/26 03:48:39;;;;;;;2.40;2.20;;;;;;;21.58;99.39;98303.75;5058037;28;41981;-86
2023/08/26 03:51:07;;;;;;;3.10;2.80;;;;;;;21.65;99.54;98320.03;5058423;28;41215;-86
2023/08/26 03:53:35;;;;;;;3.03;2.23;;;;;;;21.31;99.44;98271.94;5058545;28;39220;-87
2023/08/26 03:56:04;;;;;;;2.93;2.33;;;;;;;21.59;100.00;98310.81;5059269;28;40601;-86
2023/08/26 03:58:34;;;;;;;4.00;2.77;;;;;;;21.58;100.00;98319.91;5058351;28;42766;-87
2023/08/26 04:01:02;;;;;;;2.87;2.20;;;;;;;21.68;99.64;98331.28;5058759;28;41407;-86
2023/08/26 04:03:31;;;;;;;2.70;2.50;;;;;;;21.64;99.11;98312.94;5059019;28;39149;-86
2023/08/26 04:05:59;;;;;;;2.53;2.33;;;;;;;21.63;99.01;98314.84;5057849;28;41958;-87
2023/08/26 04:08:27;;;;;;;3.40;2.53;;;;;;;21.66;98.83;98321.72;5057632;28;41875;-90
2023/08/26 04:10:56;;;;;;;2.60;2.37;;;;;;;21.64;98.55;98312.94;5074961;28;41453;-88
2023/08/26 04:13:26;;;;;;;2.23;2.03;;;;;;;21.66;98.02;98319.84;5057682;28;40120;-87
2023/08/26 04:15:57;;;;;;;3.03;1.90;;;;;;;21.81;97.94;98336.94;5074558;28;40777;-86
2023/08/26 04:18:24;;;;;;;2.37;2.17;;;;;;;21.72;97.72;98324.53;5075064;28;41716;-89
2023/08/26 04:20:53;;;;;;;3.27;2.40;;;;;;;21.72;98.14;98321.84;5059107;28;41230;-92
2023/08/26 04:23:21;;;;;;;3.37;2.47;;;;;;;21.77;98.56;98346.38;5058082;28;39003;-92
2023/08/26 04:25:48;;;;;;;2.07;1.90;;;;;;;21.66;98.37;98332.47;5058332;28;40679;-87
2023/08/26 04:28:16;;;;;;;2.50;2.30;;;;;;;21.69;98.23;98335.66;5075368;28;42838;-87
2023/08/26 04:30:47;;;;;;;2.27;2.07;;;;;;;21.55;98.52;98331.03;5058746;28;41036;-87
2023/08/26 04:33:16;;;;;;;2.40;2.20;;;;;;;21.59;98.77;98332.38;5058231;28;42152;-87
2023/08/26 04:35:43;;;;;;;3.10;2.47;;;;;;;21.48;98.57;98319.31;5058125;28;40576;-93
2023/08/26 04:38:13;;;;;;;3.47;2.20;;;;;;;21.47;98.79;98333.78;5059234;28;41751;-89
2023/08/26 04:40:42;;;;;;;3.23;2.20;;;;;;;21.54;98.71;98361.69;5057757;28;41480;-89
2023/08/26 04:43:10;;;;;;;3.33;2.00;;;;;;;21.51;98.40;98362.06;5074806;28;40177;-88
2023/08/26 04:45:38;;;;;;;2.03;1.83;;;;;;;21.52;98.30;98358.34;5058055;28;40924;-90
2023/08/26 04:48:07;;;;;;;3.03;2.73;;;;;;;21.41;98.67;98339.88;5059324;28;41626;-91
2023/08/26 04:50:36;;;;;;;2.57;2.07;;;;;;;21.44;98.66;98361.94;5057449;28;41264;-89
2023/08/26 04:53:04;;;;;;;3.73;2.57;;;;;;;21.46;98.56;98364.44;5058612;28;39825;-91
2023/08/26 04:55:32;;;;;;;3.87;2.47;;;;;;;21.45;98.86;98374.38;5061185;28;40334;-88
2023/08/26 04:58:00;;;;;;;2.60;2.20;;;;;;;21.46;98.08;98375.22;5058644;28;41792;-87
2023/08/26 05:00:27;;;;;;;2.50;2.30;;;;;;;21.46;98.02;98391.38;5058654;28;42648;-88
2023/08/26 05:02:55;;;;;;;2.37;2.17;;;;;;;21.29;97.63;98365.53;5058353;28;38912;-89
2023/08/26 05:05:22;;;;;;;2.83;2.57;;;;;;;21.36;97.32;98374.59;5059413;28;40988;-94
2023/08/26 05:07:51;;;;;;;3.07;2.77;;;;;;;21.49;97.52;98407.22;5075666;28;41818;-86
2023/08/26 05:10:20;;;;;;;2.30;2.10;;;;;;;21.39;97.28;98395.78;5076118;28;42659;-91
2023/08/26 05:12:48;;;;;;;2.60;2.40;;;;;;;21.39;97.04;98391.22;5076714;28;39086;-87
2023/08/26 05:15:15;;;;;;;3.40;2.30;;;;;;;21.50;96.80;98419.66;5093665;28;42662;-91
2023/08/26 05:17:43;;;;;;;2.50;2.30;;;;;;;21.52;96.75;98417.63;5058586;28;41774;-92
2023/08/26 05:20:12;;;;;;;2.47;2.13;;;;;;;21.47;96.45;98409.22;5058244;28;42705;-90
2023/08/26 05:22:42;;;;;;;4.43;2.70;;;;;;;21.43;96.91;98397.13;5058404;28;41961;-85
2023/08/26 05:25:11;;;;;;;2.73;2.53;;;;;;;21.62;96.42;98425.50;5056716;28;40770;-88
2023/08/26 05:27:38;;;;;;;2.93;2.63;;;;;;;21.65;96.23;98417.88;5073693;28;41566;-91
2023/08/26 05:30:07;;;;;;;3.10;2.90;;;;;;;21.78;95.77;98439.72;5059313;28;40997;-91
2023/08/26 05:32:43;;;;;;;3.40;2.77;;;;;;;21.63;95.23;98409.16;5070898;28;40257;-91
2023/08/26 05:35:10;;;;;;;2.23;2.10;;;;;;;;;;5057062;28;41011;-89
2023/08/26 05:37:43;;;;;;;2.90;2.50;;;;;;;21.73;95.35;98423.25;5074675;28;41635;-93
2023/08/26 05:40:14;;;;;;;3.97;2.90;;;;;;;21.82;95.06;98449.13;5057427;28;42808;-91
2023/08/26 05:42:42;;;;;;;2.80;2.43;;;;;;;21.75;94.87;98432.00;5057730;28;40125;-87
2023/08/26 05:45:10;;;;;;;2.80;2.60;;;;;;;21.91;94.74;98454.47;5074325;28;40785;-88
2023/08/26 05:47:38;;;;;;;2.70;2.47;;;;;;;21.98;94.25;98450.06;5057804;28;42860;-89
2023/08/26 05:50:09;;;;;;;3.50;2.70;;;;;;;21.93;93.80;98447.06;5057387;28;41230;-89
2023/08/26 05:52:36;;;;;;;2.40;2.20;;;;;;;21.99;93.74;98435.59;5057305;28;38926;-86
2023/08/26 05:55:04;;;;;;;4.30;2.60;;;;;;;22.08;93.60;98456.09;5057514;28;40585;-88
2023/08/26 05:57:33;;;;;;;3.73;3.00;;;;;;;22.06;93.54;98452.72;5058097;28;41632;-88
2023/08/26 06:00:02;;;;;;;3.30;2.90;;;;;;;22.05;92.89;98440.25;5074481;28;41736;-88
2023/08/26 06:02:30;;;;;;;2.47;2.27;;;;;;;22.04;93.06;98438.59;5057851;28;38733;-87
2023/08/26 06:04:59;;;;;;;2.23;2.03;;;;;;;22.14;92.71;98433.78;5057661;28;43519;-90
2023/08/26 06:07:26;;;;;;;2.47;2.27;;;;;;;22.34;91.79;98440.41;5057758;28;41733;-87
2023/08/26 06:09:54;;;;;;;2.57;2.37;;;;;;;22.63;90.67;98438.78;5074156;28;41136;-89
2023/08/26 06:12:21;;;;;;;2.63;2.33;;;;;;;22.92;90.14;98455.09;5057612;28;40233;-90
2023/08/26 06:14:50;;;;;;;3.63;2.67;;;;;;;23.00;90.26;98452.31;5057393;28;42222;-90
2023/08/26 06:17:18;;;;;;;5.20;2.77;;;;;;;23.09;89.88;98456.63;5056230;28;41757;-90
2023/08/26 06:19:46;;;;;;;2.50;2.30;;;;;;;23.25;89.62;98451.03;5072647;28;42190;-87
2023/08/26 06:22:13;;;;;;;2.93;2.57;;;;;;;23.38;89.25;98438.72;5057136;28;40343;-87
2023/08/26 06:24:41;;;;;;;2.50;2.20;;;;;;;23.56;88.32;98455.44;5076394;28;41142;-87
2023/08/26 06:27:09;;;;;;;2.60;2.40;;;;;;;23.61;87.26;98455.72;5076469;28;41744;-90
2023/08/26 06:29:43;;;;;;;3.47;3.17;;;;;;;23.83;86.31;98470.13;5059510;28;41020;-89
2023/08/26 06:32:13;;;;;;;3.30;2.63;;;;;;;24.19;84.65;98480.94;5060743;28;40670;-90
2023/08/26 06:34:40;;;;;;;4.70;2.97;;;;;;;24.15;82.82;98479.66;5059508;28;40735;-93
2023/08/26 06:37:11;;;;;;;2.63;2.43;;;;;;;24.17;82.92;98483.00;5060762;28;41907;-89
2023/08/26 06:39:39;;;;;;;3.50;2.73;;;;;;;24.20;83.01;98485.34;5046633;28;41334;-91
2023/08/26 06:42:07;;;;;;;2.90;2.60;;;;;;;24.38;82.95;98491.16;5066888;28;39390;-87
2023/08/26 06:44:42;;;;;;;3.03;2.57;;;;;;;24.24;82.06;98470.41;5065166;28;41037;-90
2023/08/26 06:47:13;;;;;;;3.07;2.77;;;;;;;24.54;80.11;98498.22;5079876;28;43539;-87
2023/08/26 06:49:40;;;;;;;2.50;2.17;;;;;;;24.46;79.79;98491.06;5074704;28;41260;-87
2023/08/26 06:52:08;;;;;;;3.37;2.30;;;;;;;24.46;78.28;98488.34;5080887;28;40261;-86
2023/08/26 06:54:35;;;;;;;2.70;2.33;;;;;;;24.56;78.48;98488.88;5069036;28;41325;-85
2023/08/26 06:57:05;;;;;;;2.87;2.37;;;;;;;24.49;78.45;98487.94;5080286;28;41972;-90
2023/08/26 06:59:33;;;;;;;2.43;2.20;;;;;;;24.29;76.79;98468.81;5077545;28;41278;-87
2023/08/26 07:02:00;;;;;;;3.97;2.70;;;;;;;24.38;76.96;98495.75;5061013;28;39886;-85
2023/08/26 07:04:30;;;;;;;2.33;2.10;;;;;;;24.49;76.46;98501.47;5060134;28;42121;-88
2023/08/26 07:06:57;;;;;;;3.27;2.70;;;;;;;24.66;76.16;98511.03;5077184;28;42752;-87
2023/08/26 07:09:25;;;;;;;4.87;2.53;;;;;;;24.55;76.36;98503.44;5059993;28;42356;-86
2023/08/26 07:11:53;;;;;;;2.90;2.47;;;;;;;24.34;75.69;98479.91;5077210;28;39979;-87
2023/08/26 07:14:20;;;;;;;3.17;2.43;;;;;;;24.26;74.94;98508.94;5076928;28;42312;-86
2023/08/26 07:16:48;;;;;;;3.87;3.00;;;;;;;24.23;75.13;98517.47;5094963;28;42444;-86
2023/08/26 07:19:15;;;;;;;2.63;2.43;;;;;;;24.26;75.07;98503.53;5060002;28;41333;-90
2023/08/26 07:21:45;;;;;;;4.17;2.73;;;;;;;24.20;74.77;98515.09;5075754;28;38904;-85
2023/08/26 07:24:13;;;;;;;2.50;2.30;;;;;;;24.54;74.35;98523.41;5057970;28;40560;-86
2023/08/26 07:26:40;;;;;;;5.43;2.27;;;;;;;25.00;73.37;98510.31;5058618;28;42150;-86
2023/08/26 07:29:08;;;;;;;2.10;1.90;;;;;;;25.21;72.69;98504.03;5058434;28;41214;-85
2023/08/26 07:31:35;;;;;;;2.43;2.23;;;;;;;25.52;72.71;98516.31;5058579;28;38575;-86
2023/08/26 07:34:03;;;;;;;5.57;2.07;;;;;;;25.61;70.15;98509.72;5058557;28;41117;-86
2023/08/26 07:36:31;;;;;;;2.50;2.00;;;;;;;25.71;68.15;98523.78;5042039;28;42807;-85
2023/08/26 07:39:00;;;;;;;2.47;2.00;;;;;;;25.76;66.65;98535.69;5058322;28;41095;-86
2023/08/26 07:41:27;;;;;;;2.73;2.00;;;;;;;25.62;67.31;98511.41;5058758;28;40481;-85
2023/08/26 07:43:55;;;;;;;1.60;1.50;;;;;;;25.78;67.10;98511.06;5058528;28;40746;-85
2023/08/26 07:46:23;;;;;;;4.73;1.90;;;;;;;26.13;67.20;98523.53;5058939;28;41544;-84
2023/08/26 07:48:50;;;;;;;1.67;1.50;;;;;;;26.43;64.59;98536.84;5075144;28;42179;-85
2023/08/26 07:51:18;;;;;;;2.90;1.80;;;;;;;26.65;63.90;98530.19;5058494;28;40977;-85
2023/08/26 07:53:46;;;;;;;1.40;1.30;;;;;;;27.01;63.68;98523.56;5075606;28;40783;-86
2023/08/26 07:56:15;;;;;;;1.57;1.43;;;;;;;27.33;61.92;98495.53;5059337;28;42035;-85
2023/08/26 07:58:43;;;;;;;2.93;1.70;;;;;;;27.68;56.25;98542.38;5076293;28;41317;-85
2023/08/26 08:01:10;;;;;;;1.60;1.50;;;;;;;27.85;57.67;98523.69;5059505;28;38966;-86
2023/08/26 08:03:38;;;;;;;1.87;1.63;;;;;;;28.02;57.91;98516.72;5058837;28;40916;-85
2023/08/26 08:06:05;;;;;;;1.83;1.53;;;;;;;28.09;56.27;98528.41;5059240;28;43195;-86
2023/08/26 08:08:33;;;;;;;2.30;1.70;;;;;;;28.02;57.01;98532.22;5059049;28;41584;-86
2023/08/26 08:11:00;;;;;;;1.80;1.60;;;;;;;27.95;57.83;98496.84;5059128;28;38784;-87
2023/08/26 08:13:29;;;;;;;2.90;1.70;;;;;;;28.44;53.73;98530.78;5058982;28;40464;-87
2023/08/26 08:15:57;;;;;;;1.60;1.50;;;;;;;28.71;52.98;98515.94;5059031;28;41885;-87
2023/08/26 08:18:25;;;;;;;2.17;1.63;;;;;;;28.82;52.50;98515.25;5075526;28;42225;-87
2023/08/26 08:20:53;;;;;;;1.83;1.40;;;;;;;28.84;51.94;98512.31;5059231;28;39139;-87
2023/08/26 08:23:20;;;;;;;2.83;1.77;;;;;;;29.07;51.55;98526.19;5058829;28;42135;-89
2023/08/26 08:25:48;;;;;;;1.83;1.70;;;;;;;29.11;51.96;98521.13;5075857;28;41810;-89
2023/08/26 08:28:15;;;;;;;2.90;1.83;;;;;;;29.19;50.11;98537.22;5058846;28;41259;-87
2023/08/26 08:30:44;;;;;;;2.03;1.50;;;;;;;29.30;51.21;98548.22;5058957;28;38841;-89
2023/08/26 08:33:12;;;;;;;1.90;1.70;;;;;;;29.45;50.63;98541.63;5056431;28;40981;-89
2023/08/26 08:35:39;;;;;;;3.60;1.60;;;;;;;29.35;49.04;98527.63;5057467;28;41612;-88
2023/08/26 08:38:07;;;;;;;2.30;1.50;;;;;;;29.33;49.90;98557.84;5073719;28;41342;-89
2023/08/26 08:40:37;;;;;;;1.93;1.43;;;;;;;29.59;49.78;98562.28;5057605;28;40923;-87
2023/08/26 08:43:06;;;;;;;2.27;1.80;;;;;;;29.86;48.81;98563.69;5091119;28;42558;-87
2023/08/26 08:45:35;;;;;;;1.90;1.60;;;;;;;29.98;48.61;98558.31;5056814;28;41866;-89
2023/08/26 08:48:04;;;;;;;1.73;1.63;;;;;;;30.63;46.94;98553.13;5059873;28;41042;-88
2023/08/26 08:50:32;;;;;;;2.80;1.77;;;;;;;30.94;46.68;98580.19;5058712;28;39192;-89
2023/08/26 08:53:02;;;;;;;2.60;1.90;;;;;;;30.72;46.68;98584.53;5078820;28;40373;-87
2023/08/26 08:55:30;;;;;;;2.03;1.33;;;;;;;31.04;44.73;98580.47;5059836;28;41673;-88
2023/08/26 08:57:58;;;;;;;3.13;1.67;;;;;;;32.08;42.30;98624.66;5080387;28;42193;-84
2023/08/26 09:00:27;;;;;;;2.07;1.53;;;;;;;32.27;40.95;98614.41;5060541;28;38974;-87
2023/08/26 09:02:59;;;;;;;1.50;1.40;;;;;;;32.37;41.30;98598.19;5044191;28;40441;-88
2023/08/26 09:05:28;;;;;;;1.43;1.33;;;;;;;32.90;40.80;98603.38;5059296;28;42712;-87
2023/08/26 09:07:57;;;;;;;2.37;1.60;;;;;;;33.31;39.52;98588.50;5058804;28;41428;-86
2023/08/26 09:10:26;;;;;;;2.37;1.33;;;;;;;33.92;38.36;98621.63;5058219;28;38641;-90
2023/08/26 09:12:54;;;;;;;1.53;1.43;;;;;;;34.21;35.54;98631.38;5058285;28;40687;-90
2023/08/26 09:15:22;;;;;;;1.23;1.13;;;;;;;34.47;35.63;98619.69;5057950;28;41910;-88
2023/08/26 09:17:51;;;;;;;1.37;1.20;;;;;;;34.38;35.56;98620.34;5056281;28;42599;-87
2023/08/26 09:20:19;;;;;;;1.30;1.20;;;;;;;34.23;35.77;98615.47;5056922;28;38628;-87
2023/08/26 09:22:48;;;;;;;3.00;1.50;;;;;;;34.21;35.53;98634.97;5056864;28;41995;-87
2023/08/26 09:25:15;;;;;;;1.57;1.10;;;;;;;34.12;34.49;98643.91;5057009;28;41477;-86
2023/08/26 09:27:43;;;;;;;1.30;1.20;;;;;;;34.30;33.21;98657.38;5056661;28;41631;-89
2023/08/26 09:30:12;;;;;;;1.40;1.30;;;;;;;34.65;33.11;98664.44;5057181;28;40150;-86
2023/08/26 09:32:43;;;;;;;1.03;1.00;;;;;;;34.97;33.11;98657.16;5056980;28;40720;-90
2023/08/26 09:35:12;;;;;;;3.55;1.10;;;;;;;35.54;32.65;98640.13;5073897;28;41910;-87
2023/08/26 09:37:41;;;;;;;1.20;1.10;;;;;;;35.92;32.54;98623.34;5056842;28;41633;-87
2023/08/26 09:40:13;;;;;;;1.33;1.20;;;;;;;35.84;32.58;98648.66;5056359;28;40217;-91
2023/08/26 09:42:41;;;;;;;1.40;1.30;;;;;;;35.27;33.75;98618.94;5056728;28;41432;-90
2023/08/26 09:45:09;;;;;;;1.67;1.57;;;;;;;34.68;34.36;98609.75;5056565;28;41730;-91
2023/08/26 09:47:38;;;;;;;1.60;1.30;;;;;;;34.66;33.26;98600.06;5073337;28;41513;-88
2023/08/26 09:50:07;;;;;;;1.33;1.13;;;;;;;35.32;33.01;98628.34;5056519;28;39197;-87
2023/08/26 09:52:45;;;;;;;2.50;1.00;;;;;;;35.04;34.17;98608.22;5056489;28;40778;-87
2023/08/26 09:55:15;;;;;;;1.40;1.30;;;;;;;34.68;34.16;98603.41;5057377;28;41534;-88
2023/08/26 09:57:44;;;;;;;1.80;1.30;;;;;;;34.53;34.82;98599.38;5059065;28;41108;-87
2023/08/26 10:00:12;;;;;;;2.00;1.27;;;;;;;33.90;34.74;98608.13;5060856;28;38910;-86
2023/08/26 10:02:49;;;;;;;3.50;1.30;;;;;;;33.11;34.89;98599.94;5077550;28;40909;-89
2023/08/26 10:05:18;;;;;;;4.10;1.13;;;;;;;32.85;35.61;98608.78;5061137;28;42130;-88
2023/08/26 10:07:49;;;;;;;1.63;1.47;;;;;;;32.97;34.80;98615.03;5060795;28;41332;-92
2023/08/26 10:10:29;;;;;;;1.23;1.10;;;;;;;33.41;33.71;98620.78;5078270;28;40299;-88
2023/08/26 10:13:01;;;;;;;1.33;1.20;;;;;;;33.84;31.67;98623.72;5078204;28;40621;-90
2023/08/26 10:15:32;;;;;;;2.20;1.03;;;;;;;33.99;31.77;98620.38;5064795;28;42786;-88
2023/08/26 10:18:05;;;;;;;1.10;1.00;;;;;;;34.05;32.09;98605.59;5065212;28;41623;-87
2023/08/26 10:20:33;;;;;;;2.47;1.33;;;;;;;34.27;31.69;98619.41;5078092;28;39829;-86
2023/08/26 10:23:02;;;;;;;0.80;0.80;;;;;;;34.00;32.86;98608.25;5076255;28;40675;-91
2023/08/26 10:25:32;;;;;;;2.33;1.07;;;;;;;33.56;31.72;98645.75;5059417;28;41490;-89
2023/08/26 10:28:03;;;;;;;1.40;1.17;;;;;;;32.98;32.88;98638.66;5076301;28;42538;-89
2023/08/26 10:30:31;;;;;;;2.00;1.00;;;;;;;32.34;33.72;98591.28;5076568;28;38918;-87
2023/08/26 10:33:02;;;;;;;1.33;1.10;;;;;;;32.36;33.83;98616.53;5059746;28;42484;-88
2023/08/26 10:35:30;;;;;;;1.63;1.00;;;;;;;32.20;34.67;98620.03;5059397;28;42785;-87
2023/08/26 10:38:11;;;;;;;1.03;0.93;;;;;;;31.65;34.92;98617.63;5059422;28;41251;-86
2023/08/26 10:40:40;;;;;;;1.20;1.10;;;;;;;31.20;35.40;98635.59;5076061;28;39570;-86
2023/08/26 10:43:09;;;;;;;1.03;0.93;;;;;;;30.79;35.67;98626.25;5059716;28;40844;-84
2023/08/26 10:45:46;;;;;;;0.93;0.90;;;;;;;30.56;36.29;98617.97;5059355;28;43463;-88
2023/08/26 10:48:13;;;;;;;2.57;0.83;;;;;;;30.47;36.58;98624.78;5059403;28;41510;-89
2023/08/26 10:50:43;;;;;;;1.17;0.87;;;;;;;30.19;36.58;98628.88;5059519;28;39271;-86
2023/08/26 10:53:16;;;;;;;1.00;0.90;;;;;;;29.90;37.53;98607.75;5059810;28;42266;-88
2023/08/26 10:55:47;;;;;;;1.30;0.93;;;;;;;29.80;38.27;98618.34;5060385;28;42565;-88
2023/08/26 10:58:17;;;;;;;2.00;1.00;;;;;;;29.64;38.01;98614.31;5060477;28;41364;-81
2023/08/26 11:00:46;;;;;;;1.30;1.00;;;;;;;29.54;39.27;98598.44;5059928;28;39253;-82
2023/08/26 11:03:18;;;;;;;1.63;1.17;;;;;;;29.71;38.35;98597.84;5094494;28;41727;-85
2023/08/26 11:05:46;;;;;;;2.37;1.20;;;;;;;29.83;38.51;98585.13;5076250;28;44396;-83
2023/08/26 11:08:15;;;;;;;3.43;1.10;;;;;;;29.85;38.53;98577.56;5092564;28;42241;-82
2023/08/26 11:10:43;;;;;;;1.40;1.10;;;;;;;29.86;38.79;98573.75;5076506;28;41271;-82
2023/08/26 11:13:12;;;;;;;1.27;1.00;;;;;;;29.87;38.52;98581.72;5076801;28;42739;-82
2023/08/26 11:15:41;;;;;;;2.03;1.20;;;;;;;30.12;39.37;98573.50;5076138;28;43198;-81
2023/08/26 11:18:10;;;;;;;1.30;1.20;;;;;;;30.53;39.31;98581.00;5076470;28;42280;-83
2023/08/26 11:20:38;;;;;;;2.03;1.10;;;;;;;31.19;38.02;98565.53;5093983;28;40223;-82
2023/08/26 11:23:07;;;;;;;1.30;1.10;;;;;;;32.04;36.82;98576.88;5091587;28;42427;-82
2023/08/26 11:25:35;;;;;;;1.80;1.27;;;;;;;32.27;36.14;98574.13;5074910;28;42537;-81
2023/08/26 11:28:04;;;;;;;1.00;1.00;;;;;;;32.55;35.79;98580.72;5074968;28;41584;-87
2023/08/26 11:30:37;;;;;;;2.13;1.60;;;;;;;33.37;35.65;98567.47;5075332;28;39982;-87
2023/08/26 11:33:10;;;;;;;1.20;1.10;;;;;;;33.92;34.51;98588.63;5058157;28;40922;-86
2023/08/26 11:35:38;;;;;;;1.47;1.37;;;;;;;34.35;34.46;98594.22;5075437;28;41598;-86
2023/08/26 11:38:07;;;;;;;1.30;1.20;;;;;;;33.75;32.69;98616.13;5058342;28;41459;-87
2023/08/26 11:40:35;;;;;;;1.27;1.17;;;;;;;32.95;34.99;98599.91;5091847;28;40092;-86